METAR Data
IDs: Format: Raw Decoded Include TAF

Data at: 1352 UTC 11 Dec 2018

METAR for:EDVE (Braunschweig Arpt, --, DL)
Text:EDVE 111320Z 32010KT 9999 SCT023 BKN029 05/00 Q1018
Temperature: 5.0°C ( 41°F)
Dewpoint: 0.0°C ( 32°F) [RH = 70%]
Pressure (altimeter):30.06 inches Hg (1018.0 mb)
Winds:from the NW (320 degrees) at 12 MPH (10 knots; 5.1 m/s)
Visibility:6 or more sm (10+ km)
Ceiling:2900 feet AGL
Clouds: scattered clouds at 2300 feet AGL, broken clouds at 2900 feet AGL